createdAt,value
2023-05-02T00:02:21.397Z,100472.63
2023-05-02T00:04:49.207Z,100471.09
2023-05-02T00:07:17.196Z,100481.38
2023-05-02T00:09:45.381Z,100481.59
2023-05-02T00:12:13.427Z,100476.88
2023-05-02T00:14:41.484Z,100472.88
2023-05-02T00:17:09.818Z,100478.13
2023-05-02T00:19:40.928Z,100483.38
2023-05-02T00:22:09.099Z,100493.16
2023-05-02T00:24:37.046Z,100485.13
2023-05-02T00:27:06.379Z,100495.59
2023-05-02T00:29:34.650Z,100493.97
2023-05-02T00:32:06.194Z,100497.88
2023-05-02T00:34:34.116Z,100512.47
2023-05-02T00:37:01.997Z,100510.91
2023-05-02T00:39:29.719Z,100507.75
2023-05-02T00:41:58.746Z,100505.38
2023-05-02T00:44:27.010Z,100506.31
2023-05-02T00:46:56.052Z,100519.97
2023-05-02T00:49:24.241Z,100517.63
2023-05-02T00:51:53.909Z,100517.63
2023-05-02T00:54:21.993Z,100522.75
2023-05-02T00:56:51.109Z,100533.03
2023-05-02T00:59:19.749Z,100524.91
2023-05-02T01:02:08.467Z,100530.13
2023-05-02T01:04:51.373Z,100537.94
2023-05-02T01:07:39.549Z,100539.91
2023-05-02T01:10:26.088Z,100540.81
2023-05-02T01:13:32.373Z,100536.59
2023-05-02T01:16:03.507Z,100543.66
2023-05-02T01:18:37.033Z,100551.47
2023-05-02T01:21:10.178Z,100550.97
2023-05-02T01:23:41.142Z,100552.06
2023-05-02T01:26:30.494Z,100554.13
2023-05-02T01:29:03.780Z,100561.28
2023-05-02T01:31:36.477Z,100563.22
2023-05-02T01:34:08.499Z,100564.34
2023-05-02T01:36:38.404Z,100572.78
2023-05-02T01:39:09.621Z,100572.88
2023-05-02T01:41:39.420Z,100576.16
2023-05-02T01:44:08.929Z,100582.31
2023-05-02T01:46:40.514Z,100581.50
2023-05-02T01:49:09.570Z,100581.41
2023-05-02T01:51:44.607Z,100603.28
2023-05-02T01:54:15.903Z,100588.06
2023-05-02T01:56:44.636Z,100591.47
2023-05-02T01:59:17.716Z,100593.13
2023-05-02T02:01:46.963Z,100599.16
2023-05-02T02:04:16.851Z,100604.19
2023-05-02T02:06:48.909Z,100611.50
2023-05-02T02:09:16.970Z,100611.72
2023-05-02T02:11:47.960Z,100609.75
2023-05-02T02:14:28.240Z,100613.06
2023-05-02T02:17:01.280Z,100619.81
2023-05-02T02:19:31.440Z,100618.59
2023-05-02T02:22:00.748Z,100632.00
2023-05-02T02:24:29.972Z,100631.59
2023-05-02T02:26:58.040Z,100638.81
2023-05-02T02:29:26.209Z,100637.38
2023-05-02T02:31:56.539Z,100641.41
2023-05-02T02:34:24.683Z,100643.97
2023-05-02T02:37:29.915Z,100651.38
2023-05-02T02:40:25.433Z,100654.56
2023-05-02T02:43:18.682Z,100655.31
2023-05-02T02:46:09.787Z,100661.88
2023-05-02T02:48:54.327Z,100655.72
2023-05-02T02:51:54.351Z,100666.09
2023-05-02T02:55:09.527Z,100661.06
2023-05-02T02:57:48.710Z,100659.03
2023-05-02T03:00:22.359Z,100663.75
2023-05-02T03:02:52.429Z,100666.84
2023-05-02T03:05:23.389Z,100669.09
2023-05-02T03:07:52.249Z,100673.00
2023-05-02T03:10:23.996Z,100679.50
2023-05-02T03:12:55.738Z,100670.75
2023-05-02T03:15:52.111Z,100676.94
2023-05-02T03:18:24.863Z,100681.69
2023-05-02T03:20:53.959Z,100673.75
2023-05-02T03:23:22.080Z,100672.81
2023-05-02T03:25:52.910Z,100685.06
2023-05-02T03:28:24.888Z,100680.19
2023-05-02T03:30:54.145Z,100694.19
2023-05-02T03:33:24.157Z,100694.56
2023-05-02T03:35:52.230Z,100695.00
2023-05-02T03:38:20.334Z,100698.06
2023-05-02T03:40:50.463Z,100708.66
2023-05-02T03:43:18.931Z,100708.13
2023-05-02T03:45:48.663Z,100707.09
2023-05-02T03:48:18.154Z,100714.06
2023-05-02T03:50:48.418Z,100714.34
2023-05-02T03:53:16.576Z,100706.19
2023-05-02T03:55:52.893Z,100710.91
2023-05-02T03:58:31.787Z,100725.59
2023-05-02T04:01:00.485Z,100720.97
2023-05-02T04:03:30.121Z,100732.88
2023-05-02T04:06:00.923Z,100724.81
2023-05-02T04:08:28.752Z,100733.53
2023-05-02T04:10:57.398Z,100733.91
2023-05-02T04:13:25.425Z,100723.25
2023-05-02T04:15:53.379Z,100738.06
2023-05-02T04:18:23.985Z,100731.63
2023-05-02T04:20:52.804Z,100731.06
2023-05-02T04:23:22.859Z,100738.13
2023-05-02T04:25:56.808Z,100741.66
2023-05-02T04:28:32.637Z,100742.72
2023-05-02T04:31:01.582Z,100745.69
2023-05-02T04:33:29.347Z,100743.56
2023-05-02T04:35:57.970Z,100752.84
2023-05-02T04:38:26.392Z,100753.09
2023-05-02T04:40:55.231Z,100744.19
2023-05-02T04:43:31.352Z,100751.09
2023-05-02T04:46:02.358Z,100758.97
2023-05-02T04:48:34.872Z,100760.13
2023-05-02T04:51:02.383Z,100761.19
2023-05-02T04:53:31.607Z,100759.66
2023-05-02T04:55:59.556Z,100764.13
2023-05-02T04:58:28.991Z,100767.59
2023-05-02T05:01:19.152Z,100762.91
2023-05-02T05:03:50.874Z,100762.06
2023-05-02T05:06:19.748Z,100757.47
2023-05-02T05:08:49.719Z,100761.09
2023-05-02T05:11:17.737Z,100767.41
2023-05-02T05:13:45.200Z,100769.25
2023-05-02T05:16:14.618Z,100767.00
2023-05-02T05:18:43.590Z,100770.63
2023-05-02T05:21:14.682Z,100773.31
2023-05-02T05:23:46.263Z,100768.56
2023-05-02T05:26:19.127Z,100769.47
2023-05-02T05:28:49.980Z,100777.31
2023-05-02T05:31:18.825Z,100768.34
2023-05-02T05:33:53.331Z,100778.19
2023-05-02T05:36:23.826Z,100774.28
2023-05-02T05:38:52.349Z,100766.94
2023-05-02T05:41:24.131Z,100773.94
2023-05-02T05:43:58.039Z,100773.56
2023-05-02T05:46:28.096Z,100775.50
2023-05-02T05:48:57.058Z,100769.13
2023-05-02T05:51:28.150Z,100769.31
2023-05-02T05:53:58.875Z,100772.63
2023-05-02T05:56:27.600Z,100770.47
2023-05-02T05:59:01.605Z,100767.91
2023-05-02T06:01:29.499Z,100777.63
2023-05-02T06:03:58.054Z,100773.53
2023-05-02T06:06:27.701Z,100769.47
2023-05-02T06:08:55.436Z,100782.03
2023-05-02T06:11:24.763Z,100780.53
2023-05-02T06:13:53.183Z,100774.69
2023-05-02T06:16:20.986Z,100769.13
2023-05-02T06:18:51.157Z,100777.28
2023-05-02T06:21:19.163Z,100772.78
2023-05-02T06:23:47.032Z,100767.47
2023-05-02T06:26:15.226Z,100774.88
2023-05-02T06:28:42.964Z,100770.22
2023-05-02T06:31:10.728Z,100778.56
2023-05-02T06:33:38.435Z,100771.47
2023-05-02T06:36:06.560Z,100776.28
2023-05-02T06:38:34.430Z,100782.41
2023-05-02T06:41:02.311Z,100772.72
2023-05-02T06:43:30.012Z,100781.72
2023-05-02T06:45:58.810Z,100772.72
2023-05-02T06:48:26.402Z,100781.03
2023-05-02T06:50:56.860Z,100773.69
2023-05-02T06:53:24.767Z,100785.28
2023-05-02T06:55:52.713Z,100784.16
2023-05-02T06:58:21.235Z,100773.66
2023-05-02T07:00:52.308Z,100778.97
2023-05-02T07:03:20.434Z,100787.03
2023-05-02T07:05:47.923Z,100784.69
2023-05-02T07:08:15.374Z,100779.91
2023-05-02T07:10:43.495Z,100786.16
2023-05-02T07:13:11.563Z,100787.53
2023-05-02T07:15:39.460Z,100792.44
2023-05-02T07:18:07.339Z,100782.03
2023-05-02T07:20:35.176Z,100788.59
2023-05-02T07:23:02.616Z,100791.88
2023-05-02T07:25:30.639Z,100786.00
2023-05-02T07:27:58.031Z,100787.09
2023-05-02T07:30:26.070Z,100789.53
2023-05-02T07:32:53.529Z,100782.28
2023-05-02T07:35:21.275Z,100785.25
2023-05-02T07:37:48.828Z,100781.94
2023-05-02T07:40:16.561Z,100788.81
2023-05-02T07:42:44.503Z,100789.34
2023-05-02T07:45:12.051Z,100789.72
2023-05-02T07:47:39.799Z,100792.03
2023-05-02T07:50:07.934Z,100795.31
2023-05-02T07:52:35.917Z,100784.63
2023-05-02T07:55:04.015Z,100777.66
2023-05-02T07:57:31.846Z,100779.41
2023-05-02T08:00:00.438Z,100771.72
2023-05-02T08:02:29.451Z,100772.25
2023-05-02T08:04:57.008Z,100768.94
2023-05-02T08:07:24.843Z,100773.06
2023-05-02T08:09:52.539Z,100772.59
2023-05-02T08:12:20.061Z,100778.03
2023-05-02T08:14:47.518Z,100773.53
2023-05-02T08:17:15.471Z,100768.94
2023-05-02T08:19:43.168Z,100764.09
2023-05-02T08:22:10.982Z,100763.78
2023-05-02T08:24:38.462Z,100768.56
2023-05-02T08:27:06.947Z,100764.84
2023-05-02T08:29:34.700Z,100756.88
2023-05-02T08:32:02.293Z,100767.13
2023-05-02T08:34:30.276Z,100770.09
2023-05-02T08:36:58.627Z,100768.69
2023-05-02T08:39:26.160Z,100771.16
2023-05-02T08:41:54.519Z,100765.66
2023-05-02T08:44:25.276Z,100764.97
2023-05-02T08:46:54.586Z,100766.31
2023-05-02T08:49:25.623Z,100760.53
2023-05-02T08:51:55.594Z,100756.84
2023-05-02T08:54:25.963Z,100759.84
2023-05-02T08:56:57.137Z,100748.88
2023-05-02T08:59:25.406Z,100750.22
2023-05-02T09:01:59.620Z,100746.56
2023-05-02T09:04:34.352Z,100748.69
2023-05-02T09:07:02.099Z,100749.06
2023-05-02T09:09:32.030Z,100743.19
2023-05-02T09:12:00.307Z,100745.84
2023-05-02T09:14:28.704Z,100734.31
2023-05-02T09:17:02.967Z,100743.44
2023-05-02T09:19:31.112Z,100746.56
2023-05-02T09:22:02.592Z,100744.94
2023-05-02T09:24:30.212Z,100743.00
2023-05-02T09:27:03.332Z,100734.50
2023-05-02T09:29:36.369Z,100732.09
2023-05-02T09:32:06.108Z,100735.75
2023-05-02T09:34:34.409Z,100728.91
2023-05-02T09:37:04.183Z,100728.59
2023-05-02T09:39:32.199Z,100718.03
2023-05-02T09:42:00.234Z,100724.09
2023-05-02T09:44:37.359Z,100712.53
2023-05-02T09:47:06.972Z,100716.59
2023-05-02T09:49:41.303Z,100716.97
2023-05-02T09:52:14.249Z,100708.00
2023-05-02T09:54:42.079Z,100719.28
2023-05-02T09:57:11.319Z,100718.34
2023-05-02T09:59:40.062Z,100712.81
2023-05-02T10:02:09.844Z,100712.94
2023-05-02T10:04:50.318Z,100715.09
2023-05-02T10:07:21.580Z,100714.63
2023-05-02T10:09:53.602Z,100694.88
2023-05-02T10:12:26.997Z,100695.38
2023-05-02T10:15:01.138Z,100687.56
2023-05-02T10:17:34.648Z,100704.84
2023-05-02T10:20:07.511Z,100700.94
2023-05-02T10:22:37.150Z,100701.28
2023-05-02T10:25:05.751Z,100698.03
2023-05-02T10:27:34.552Z,100692.00
2023-05-02T10:30:04.783Z,100701.47
2023-05-02T10:32:34.873Z,100686.78
2023-05-02T10:35:05.608Z,100690.25
2023-05-02T10:37:36.558Z,100688.28
2023-05-02T10:40:06.383Z,100689.25
2023-05-02T10:42:46.051Z,100687.47
2023-05-02T10:45:33.817Z,100684.69
2023-05-02T10:48:31.417Z,100672.59
2023-05-02T10:51:06.005Z,100688.75
2023-05-02T10:53:45.040Z,100676.69
2023-05-02T10:56:28.505Z,100679.13
2023-05-02T10:59:28.835Z,100663.81
2023-05-02T11:01:59.131Z,100665.13
2023-05-02T11:04:29.912Z,100664.59
2023-05-02T11:06:58.583Z,100665.47
2023-05-02T11:09:32.463Z,100663.81
2023-05-02T11:12:05.249Z,100663.50
2023-05-02T11:14:42.386Z,100658.59
2023-05-02T11:17:10.550Z,100659.25
2023-05-02T11:19:38.486Z,100652.38
2023-05-02T11:22:19.112Z,100654.97
2023-05-02T11:24:51.584Z,100649.72
2023-05-02T11:27:33.818Z,100645.16
2023-05-02T11:30:06.830Z,100642.69
2023-05-02T11:32:47.975Z,100642.38
2023-05-02T11:35:24.058Z,100642.66
2023-05-02T11:38:03.331Z,100641.84
2023-05-02T11:40:32.146Z,100640.88
2023-05-02T11:43:01.128Z,100638.72
2023-05-02T11:45:45.402Z,100633.97
2023-05-02T11:48:14.869Z,100624.31
2023-05-02T11:50:53.209Z,100635.91
2023-05-02T11:53:26.509Z,100628.69
2023-05-02T11:55:56.203Z,100627.69
2023-05-02T11:58:26.428Z,100625.69
2023-05-02T12:00:54.485Z,100610.75
2023-05-02T12:03:33.043Z,100610.50
2023-05-02T12:06:18.164Z,100607.53
2023-05-02T12:08:46.757Z,100600.91
2023-05-02T12:11:16.720Z,100603.13
2023-05-02T12:13:50.135Z,100590.94
2023-05-02T12:16:19.805Z,100585.47
2023-05-02T12:18:48.535Z,100592.38
2023-05-02T12:21:17.456Z,100597.00
2023-05-02T12:23:45.644Z,100593.78
2023-05-02T12:26:21.897Z,100582.84
2023-05-02T12:28:58.346Z,100586.50
2023-05-02T12:31:27.445Z,100581.63
2023-05-02T12:33:57.954Z,100583.06
2023-05-02T12:36:28.623Z,100583.41
2023-05-02T12:39:00.434Z,100588.13
2023-05-02T12:41:39.804Z,100575.72
2023-05-02T12:44:08.209Z,100579.06
2023-05-02T12:46:36.652Z,100567.03
2023-05-02T12:49:10.117Z,100579.19
2023-05-02T12:51:39.276Z,100570.69
2023-05-02T12:54:07.281Z,100561.31
2023-05-02T12:56:43.947Z,100561.25
2023-05-02T12:59:28.799Z,100547.81
2023-05-02T13:01:56.717Z,100558.59
2023-05-02T13:04:41.614Z,100555.88
2023-05-02T13:07:09.724Z,100554.28
2023-05-02T13:09:37.699Z,100548.19
2023-05-02T13:12:06.417Z,100550.63
2023-05-02T13:14:34.158Z,100550.06
2023-05-02T13:17:02.343Z,100550.09
2023-05-02T13:19:32.216Z,100544.00
2023-05-02T13:22:00.527Z,100544.28
2023-05-02T13:24:28.154Z,100537.09
2023-05-02T13:26:56.259Z,100551.50
2023-05-02T13:29:23.987Z,100547.97
2023-05-02T13:31:52.076Z,100541.34
2023-05-02T13:34:19.929Z,100542.34
2023-05-02T13:36:47.521Z,100541.88
2023-05-02T13:39:15.035Z,100534.38
2023-05-02T13:41:42.784Z,100543.66
2023-05-02T13:44:10.630Z,100528.63
2023-05-02T13:46:39.205Z,100516.53
2023-05-02T13:49:06.823Z,100513.72
2023-05-02T13:51:34.573Z,100507.94
2023-05-02T13:54:02.412Z,100509.22
2023-05-02T13:56:30.329Z,100509.50
2023-05-02T13:58:57.779Z,100505.53
2023-05-02T14:01:28.563Z,100505.94
2023-05-02T14:03:56.373Z,100500.94
2023-05-02T14:06:24.608Z,100495.88
2023-05-02T14:08:52.530Z,100500.66
2023-05-02T14:11:20.447Z,100497.09
2023-05-02T14:13:49.531Z,100493.75
2023-05-02T14:16:17.673Z,100492.69
2023-05-02T14:18:50.308Z,100490.84
2023-05-02T14:21:18.329Z,100488.31
2023-05-02T14:23:46.155Z,100482.91
2023-05-02T14:26:14.525Z,100485.94
2023-05-02T14:28:42.575Z,100479.44
2023-05-02T14:31:10.126Z,100479.13
2023-05-02T14:33:37.981Z,100471.34
2023-05-02T14:36:05.646Z,100471.53
2023-05-02T14:38:33.236Z,100468.09
2023-05-02T14:41:02.831Z,100472.88
2023-05-02T14:43:30.737Z,100470.25
2023-05-02T14:45:59.012Z,100470.94
2023-05-02T14:48:26.900Z,100462.78
2023-05-02T14:50:54.628Z,100471.19
2023-05-02T14:53:22.288Z,100469.09
2023-05-02T14:55:50.007Z,100471.63
2023-05-02T14:58:20.849Z,100467.25
2023-05-02T15:00:49.247Z,100458.44
2023-05-02T15:03:17.187Z,100467.19
2023-05-02T15:05:45.481Z,100473.22
2023-05-02T15:08:13.414Z,100466.91
2023-05-02T15:10:40.999Z,100460.44
2023-05-02T15:13:09.007Z,100464.34
2023-05-02T15:15:37.619Z,100461.66
2023-05-02T15:18:05.286Z,100454.47
2023-05-02T15:20:35.286Z,100456.34
2023-05-02T15:23:03.812Z,100453.28
2023-05-02T15:25:31.985Z,100453.25
2023-05-02T15:28:00.001Z,100458.41
2023-05-02T15:30:28.067Z,100455.13
2023-05-02T15:32:55.909Z,100451.97
2023-05-02T15:35:23.735Z,100450.91
2023-05-02T15:37:51.593Z,100461.78
2023-05-02T15:40:19.598Z,100449.63
2023-05-02T15:42:47.487Z,100449.06
2023-05-02T15:45:15.480Z,100448.47
2023-05-02T15:47:43.519Z,100450.88
2023-05-02T15:50:11.829Z,100453.38
2023-05-02T15:52:39.937Z,100446.72
2023-05-02T15:55:08.407Z,100453.03
2023-05-02T15:57:36.256Z,100450.44
2023-05-02T16:00:05.000Z,100445.66
2023-05-02T16:02:34.526Z,100459.97
2023-05-02T16:05:02.346Z,100452.44
2023-05-02T16:07:31.058Z,100449.94
2023-05-02T16:09:59.127Z,100446.16
2023-05-02T16:12:27.291Z,100457.78
2023-05-02T16:14:54.820Z,100452.47
2023-05-02T16:17:22.765Z,100447.88
2023-05-02T16:19:50.488Z,100453.47
2023-05-02T16:22:18.136Z,100452.09
2023-05-02T16:24:46.275Z,100457.59
2023-05-02T16:27:13.894Z,100451.81
2023-05-02T16:29:42.016Z,100444.84
2023-05-02T16:32:10.042Z,100445.44
2023-05-02T16:34:38.198Z,100443.88
2023-05-02T16:37:07.511Z,100437.81
2023-05-02T16:39:36.069Z,100442.09
2023-05-02T16:42:04.326Z,100441.56
2023-05-02T16:44:32.689Z,100435.41
2023-05-02T16:47:00.421Z,100446.63
2023-05-02T16:49:28.414Z,100436.78
2023-05-02T16:51:56.256Z,100442.56
2023-05-02T16:54:24.360Z,100443.66
2023-05-02T16:56:52.160Z,100443.28
2023-05-02T16:59:19.794Z,100438.03
2023-05-02T17:01:47.666Z,100442.88
2023-05-02T17:04:16.519Z,100442.47
2023-05-02T17:06:44.562Z,100430.78
2023-05-02T17:09:12.522Z,100437.06
2023-05-02T17:11:40.671Z,100437.03
2023-05-02T17:14:09.047Z,100430.94
2023-05-02T17:16:36.748Z,100439.00
2023-05-02T17:19:05.022Z,100446.88
2023-05-02T17:21:33.870Z,100446.47
2023-05-02T17:24:02.033Z,100446.19
2023-05-02T17:26:30.100Z,100436.00
2023-05-02T17:28:58.238Z,100433.06
2023-05-02T17:31:26.166Z,100432.66
2023-05-02T17:33:54.174Z,100447.16
2023-05-02T17:36:21.824Z,100442.97
2023-05-02T17:38:49.658Z,100433.34
2023-05-02T17:41:17.310Z,100436.16
2023-05-02T17:43:45.233Z,100438.94
2023-05-02T17:46:13.435Z,100443.19
2023-05-02T17:48:44.734Z,100426.41
2023-05-02T17:51:12.962Z,100419.94
2023-05-02T17:53:40.672Z,100430.00
2023-05-02T17:56:08.768Z,100428.38
2023-05-02T17:58:37.691Z,100429.53
2023-05-02T18:01:09.746Z,100421.22
2023-05-02T18:03:38.188Z,100422.84
2023-05-02T18:06:06.445Z,100415.31
2023-05-02T18:08:41.790Z,100418.91
2023-05-02T18:11:20.379Z,100413.38
2023-05-02T18:13:50.349Z,100412.69
2023-05-02T18:16:48.911Z,100393.28
2023-05-02T18:19:16.489Z,100401.22
2023-05-02T18:21:45.037Z,100410.38
2023-05-02T18:24:14.794Z,100409.03
2023-05-02T18:26:42.334Z,100403.00
2023-05-02T18:29:14.350Z,100394.81
2023-05-02T18:31:54.433Z,100394.47
2023-05-02T18:34:23.053Z,100399.66
2023-05-02T18:36:57.258Z,100399.09
2023-05-02T18:39:24.974Z,100399.38
2023-05-02T18:41:52.752Z,100394.28
2023-05-02T18:44:22.524Z,100389.84
2023-05-02T18:46:50.479Z,100390.44
2023-05-02T18:49:17.903Z,100397.25
2023-05-02T18:51:45.402Z,100408.91
2023-05-02T18:54:13.613Z,100403.88
2023-05-02T18:56:41.765Z,100411.81
2023-05-02T18:59:09.513Z,100403.66
2023-05-02T19:01:37.437Z,100400.53
2023-05-02T19:04:05.357Z,100397.94
2023-05-02T19:06:33.433Z,100407.69
2023-05-02T19:09:01.866Z,100402.03
2023-05-02T19:11:29.333Z,100396.84
2023-05-02T19:13:59.909Z,100397.78
2023-05-02T19:16:29.157Z,100392.59
2023-05-02T19:18:57.201Z,100390.97
2023-05-02T19:21:24.749Z,100392.09
2023-05-02T19:23:52.951Z,100389.75
2023-05-02T19:26:21.465Z,100384.34
2023-05-02T19:28:49.065Z,100382.34
2023-05-02T19:31:19.441Z,100383.63
2023-05-02T19:33:52.014Z,100378.34
2023-05-02T19:36:21.987Z,100377.53
2023-05-02T19:38:51.208Z,100374.56
2023-05-02T19:41:18.778Z,100367.69
2023-05-02T19:43:47.053Z,100367.84
2023-05-02T19:46:15.598Z,100365.00
2023-05-02T19:48:43.456Z,100377.16
2023-05-02T19:51:11.020Z,100363.41
2023-05-02T19:53:44.700Z,100361.91
2023-05-02T19:56:12.209Z,100362.06
2023-05-02T19:58:40.024Z,100367.53
2023-05-02T20:01:07.476Z,100360.56
2023-05-02T20:03:35.299Z,100363.47
2023-05-02T20:06:03.054Z,100360.34
2023-05-02T20:08:31.586Z,100354.63
2023-05-02T20:10:59.093Z,100350.47
2023-05-02T20:13:27.368Z,100352.16
2023-05-02T20:15:54.958Z,100349.06
2023-05-02T20:18:23.189Z,100348.16
2023-05-02T20:20:50.912Z,100347.13
2023-05-02T20:23:18.990Z,100344.59
2023-05-02T20:25:46.450Z,100349.50
2023-05-02T20:28:14.367Z,100350.22
2023-05-02T20:30:43.515Z,100344.78
2023-05-02T20:33:16.129Z,100345.75
2023-05-02T20:35:45.313Z,100345.66
2023-05-02T20:38:12.782Z,100344.97
2023-05-02T20:40:43.486Z,100341.50
2023-05-02T20:43:11.960Z,100336.72
2023-05-02T20:45:40.207Z,100337.44
2023-05-02T20:48:08.070Z,100332.28
2023-05-02T20:50:35.954Z,100337.75
2023-05-02T20:53:04.625Z,100334.78
2023-05-02T20:55:32.163Z,100331.78
2023-05-02T20:57:59.863Z,100340.94
2023-05-02T21:00:28.291Z,100337.28
2023-05-02T21:02:55.852Z,100332.38
2023-05-02T21:05:23.518Z,100342.19
2023-05-02T21:07:51.313Z,100340.44
2023-05-02T21:10:19.022Z,100331.56
2023-05-02T21:12:46.644Z,100339.59
2023-05-02T21:15:14.495Z,100337.31
2023-05-02T21:17:43.172Z,100336.34
2023-05-02T21:20:11.196Z,100327.63
2023-05-02T21:22:38.691Z,100327.34
2023-05-02T21:25:06.730Z,100320.94
2023-05-02T21:27:34.467Z,100309.22
2023-05-02T21:30:02.524Z,100316.75
2023-05-02T21:32:30.944Z,100314.16
2023-05-02T21:34:58.671Z,100312.66
2023-05-02T21:37:26.474Z,100313.63
2023-05-02T21:39:54.085Z,100304.75
2023-05-02T21:42:21.947Z,100310.22
2023-05-02T21:44:52.315Z,100309.81
2023-05-02T21:47:21.344Z,100302.72
2023-05-02T21:49:49.634Z,100305.75
2023-05-02T21:52:17.205Z,100308.59
2023-05-02T21:54:47.186Z,100300.19
2023-05-02T21:57:16.557Z,100298.69
2023-05-02T21:59:45.927Z,100303.56
2023-05-02T22:02:13.449Z,100304.78
2023-05-02T22:04:41.407Z,100311.88
2023-05-02T22:07:09.107Z,100299.09
2023-05-02T22:09:36.660Z,100302.88
2023-05-02T22:12:04.646Z,100295.00
2023-05-02T22:14:41.772Z,100295.00
2023-05-02T22:17:13.614Z,100292.13
2023-05-02T22:19:42.014Z,100289.41
2023-05-02T22:22:09.577Z,100286.97
2023-05-02T22:24:37.148Z,100288.56
2023-05-02T22:27:05.096Z,100269.78
2023-05-02T22:29:32.946Z,100276.47
2023-05-02T22:32:01.264Z,100270.88
2023-05-02T22:34:28.896Z,100270.19
2023-05-02T22:36:56.507Z,100261.59
2023-05-02T22:39:24.688Z,100255.03
2023-05-02T22:41:52.297Z,100265.91
2023-05-02T22:44:20.003Z,100257.63
2023-05-02T22:46:48.016Z,100259.00
2023-05-02T22:49:15.929Z,100265.16
2023-05-02T22:51:45.270Z,100256.03
2023-05-02T22:54:15.099Z,100259.16
2023-05-02T22:56:42.885Z,100259.13
2023-05-02T22:59:10.913Z,100253.75
2023-05-02T23:01:38.494Z,100255.34
2023-05-02T23:04:06.063Z,100250.69
2023-05-02T23:06:33.770Z,100237.31
2023-05-02T23:09:01.956Z,100241.94
2023-05-02T23:11:29.669Z,100241.13
2023-05-02T23:13:57.115Z,100231.28
2023-05-02T23:16:25.375Z,100229.50
2023-05-02T23:18:53.032Z,100223.50
2023-05-02T23:21:20.836Z,100213.88
2023-05-02T23:23:49.872Z,100217.44
2023-05-02T23:26:17.839Z,100216.22
2023-05-02T23:28:45.596Z,100217.19
2023-05-02T23:31:13.650Z,100225.09
2023-05-02T23:33:41.357Z,100217.75
2023-05-02T23:36:09.775Z,100218.03
2023-05-02T23:38:38.510Z,100212.91
2023-05-02T23:41:06.060Z,100220.81
2023-05-02T23:43:34.024Z,100212.38
2023-05-02T23:46:02.316Z,100213.97
2023-05-02T23:48:29.872Z,100217.03
2023-05-02T23:50:57.830Z,100212.41
2023-05-02T23:53:25.374Z,100201.00
2023-05-02T23:55:53.069Z,100205.50
2023-05-02T23:58:21.709Z,100204.81
